Aviation Digital Data Service (ADDS)

Output produced by METARs form (0411 UTC 26 June 2019)
found at http://www.aviationweather.gov/metar/data/
 
METAR text: SEST 260000Z 13012KT 9999 SCT016 23/20 Q1008 RMK A2977
Conditions at: SEST (SAN CRISTOBAL IS, EC) observed 0000 UTC 26 June 2019
Temperature: 23.0°C (73°F)
Dewpoint: 20.0°C (68°F) [RH = 83%]
Pressure (altimeter): 29.76 inches Hg (1008.0 mb)
Winds: from the SE (130 degrees) at 14 MPH (12 knots; 6.2 m/s)
Visibility: 6 or more miles (10+ km)
Ceiling: at least 12,000 feet AGL
Clouds: scattered clouds at 1600 feet AGL
Weather: no significant weather observed at this time

METAR text: SEST 252300Z 15012KT 9999 FEW016 24/20 Q1008 RMK A2977
Conditions at: SEST (SAN CRISTOBAL IS, EC) observed 2300 UTC 25 June 2019
Temperature: 24.0°C (75°F)
Dewpoint: 20.0°C (68°F) [RH = 78%]
Pressure (altimeter): 29.76 inches Hg (1008.0 mb)
Winds: from the SSE (150 degrees) at 14 MPH (12 knots; 6.2 m/s)
Visibility: 6 or more miles (10+ km)
Ceiling: at least 12,000 feet AGL
Clouds: few clouds at 1600 feet AGL
Weather: no significant weather observed at this time

METAR text: SEST 252200Z 15016KT CAVOK 26/20 Q1007 RMK A2975
Conditions at: SEST (SAN CRISTOBAL IS, EC) observed 2200 UTC 25 June 2019
Temperature: 26.0°C (79°F)
Dewpoint: 20.0°C (68°F) [RH = 70%]
Pressure (altimeter): 29.73 inches Hg (1007.0 mb)
Winds: from the SSE (150 degrees) at 18 MPH (16 knots; 8.2 m/s)
Visibility: 6 or more miles (10+ km)
Ceiling: ceiling and visibility are OK
Clouds: unknown
Weather: no significant weather observed at this time

METAR text: SEST 252100Z 15016KT CAVOK 25/20 Q1008 RMK A2976
Conditions at: SEST (SAN CRISTOBAL IS, EC) observed 2100 UTC 25 June 2019
Temperature: 25.0°C (77°F)
Dewpoint: 20.0°C (68°F) [RH = 74%]
Pressure (altimeter): 29.76 inches Hg (1008.0 mb)
Winds: from the SSE (150 degrees) at 18 MPH (16 knots; 8.2 m/s)
Visibility: 6 or more miles (10+ km)
Ceiling: ceiling and visibility are OK
Clouds: unknown
Weather: no significant weather observed at this time

METAR text: SEST 252000Z 15017KT 9999 FEW016 BKN080 26/20 Q1009 RMK A2981
Conditions at: SEST (SAN CRISTOBAL IS, EC) observed 2000 UTC 25 June 2019
Temperature: 26.0°C (79°F)
Dewpoint: 20.0°C (68°F) [RH = 70%]
Pressure (altimeter): 29.79 inches Hg (1009.0 mb)
Winds: from the SSE (150 degrees) at 20 MPH (17 knots; 8.7 m/s)
Visibility: 6 or more miles (10+ km)
Ceiling: 8000 feet AGL
Clouds: few clouds at 1600 feet AGL
broken clouds at 8000 feet AGL
Weather: no significant weather observed at this time

METAR text: SEST 251900Z 14016KT 9999 FEW016 BKN080 25/20 Q1010 RMK A2983
Conditions at: SEST (SAN CRISTOBAL IS, EC) observed 1900 UTC 25 June 2019
Temperature: 25.0°C (77°F)
Dewpoint: 20.0°C (68°F) [RH = 74%]
Pressure (altimeter): 29.82 inches Hg (1010.0 mb)
Winds: from the SE (140 degrees) at 18 MPH (16 knots; 8.2 m/s)
Visibility: 6 or more miles (10+ km)
Ceiling: 8000 feet AGL
Clouds: few clouds at 1600 feet AGL
broken clouds at 8000 feet AGL
Weather: no significant weather observed at this time

METAR text: SEST 251800Z 13016KT 9999 FEW016 BKN080 27/21 Q1011 RMK A2985
Conditions at: SEST (SAN CRISTOBAL IS, EC) observed 1800 UTC 25 June 2019
Temperature: 27.0°C (81°F)
Dewpoint: 21.0°C (70°F) [RH = 70%]
Pressure (altimeter): 29.85 inches Hg (1011.0 mb)
Winds: from the SE (130 degrees) at 18 MPH (16 knots; 8.2 m/s)
Visibility: 6 or more miles (10+ km)
Ceiling: 8000 feet AGL
Clouds: few clouds at 1600 feet AGL
broken clouds at 8000 feet AGL
Weather: no significant weather observed at this time

METAR text: SEST 251700Z 12016KT 9999 FEW016 BKN100 26/20 Q1011 RMK A2987
Conditions at: SEST (SAN CRISTOBAL IS, EC) observed 1700 UTC 25 June 2019
Temperature: 26.0°C (79°F)
Dewpoint: 20.0°C (68°F) [RH = 70%]
Pressure (altimeter): 29.85 inches Hg (1011.0 mb)
Winds: from the ESE (120 degrees) at 18 MPH (16 knots; 8.2 m/s)
Visibility: 6 or more miles (10+ km)
Ceiling: 10000 feet AGL
Clouds: few clouds at 1600 feet AGL
broken clouds at 10000 feet AGL
Weather: no significant weather observed at this time

METAR text: SEST 251600Z 14013KT 9999 FEW016 SCT040 BKN100 26/21 Q1012 RMK A2988
Conditions at: SEST (SAN CRISTOBAL IS, EC) observed 1600 UTC 25 June 2019
Temperature: 26.0°C (79°F)
Dewpoint: 21.0°C (70°F) [RH = 74%]
Pressure (altimeter): 29.88 inches Hg (1012.0 mb)
Winds: from the SE (140 degrees) at 15 MPH (13 knots; 6.7 m/s)
Visibility: 6 or more miles (10+ km)
Ceiling: 10000 feet AGL
Clouds: few clouds at 1600 feet AGL
scattered clouds at 4000 feet AGL
broken clouds at 10000 feet AGL
Weather: no significant weather observed at this time

METAR text: SEST 251500Z 15013KT 9999 FEW016 SCT040 25/21 Q1011 RMK A2987
Conditions at: SEST (SAN CRISTOBAL IS, EC) observed 1500 UTC 25 June 2019
Temperature: 25.0°C (77°F)
Dewpoint: 21.0°C (70°F) [RH = 79%]
Pressure (altimeter): 29.85 inches Hg (1011.0 mb)
Winds: from the SSE (150 degrees) at 15 MPH (13 knots; 6.7 m/s)
Visibility: 6 or more miles (10+ km)
Ceiling: at least 12,000 feet AGL
Clouds: few clouds at 1600 feet AGL
scattered clouds at 4000 feet AGL
Weather: no significant weather observed at this time

METAR text: SEST 251400Z 14010KT 9999 FEW013 SCT040 24/21 Q1011 RMK A2987
Conditions at: SEST (SAN CRISTOBAL IS, EC) observed 1400 UTC 25 June 2019
Temperature: 24.0°C (75°F)
Dewpoint: 21.0°C (70°F) [RH = 83%]
Pressure (altimeter): 29.85 inches Hg (1011.0 mb)
Winds: from the SE (140 degrees) at 12 MPH (10 knots; 5.1 m/s)
Visibility: 6 or more miles (10+ km)
Ceiling: at least 12,000 feet AGL
Clouds: few clouds at 1300 feet AGL
scattered clouds at 4000 feet AGL
Weather: no significant weather observed at this time

METAR text: SEST 251300Z 15012KT 9999 FEW006 SCT040 BKN260 22/20 Q1010 RMK A2983
Conditions at: SEST (SAN CRISTOBAL IS, EC) observed 1300 UTC 25 June 2019
Temperature: 22.0°C (72°F)
Dewpoint: 20.0°C (68°F) [RH = 88%]
Pressure (altimeter): 29.82 inches Hg (1010.0 mb)
Winds: from the SSE (150 degrees) at 14 MPH (12 knots; 6.2 m/s)
Visibility: 6 or more miles (10+ km)
Ceiling: 26000 feet AGL
Clouds: few clouds at 600 feet AGL
scattered clouds at 4000 feet AGL
broken clouds at 26000 feet AGL
Weather: no significant weather observed at this time

METAR text: SEST 251200Z 14010KT 9999 SCT040 OVC230 21/20 Q1010 RMK A2982
Conditions at: SEST (SAN CRISTOBAL IS, EC) observed 1200 UTC 25 June 2019
Temperature: 21.0°C (70°F)
Dewpoint: 20.0°C (68°F) [RH = 94%]
Pressure (altimeter): 29.82 inches Hg (1010.0 mb)
Winds: from the SE (140 degrees) at 12 MPH (10 knots; 5.1 m/s)
Visibility: 6 or more miles (10+ km)
Ceiling: 23000 feet AGL
Clouds: scattered clouds at 4000 feet AGL
overcast cloud deck at 23000 feet AGL
Weather: no significant weather observed at this time

METAR text: SEST 250000Z 15012KT 9999 FEW020 SCT200 23/20 Q1010 RMK A2982
Conditions at: SEST (SAN CRISTOBAL IS, EC) observed 0000 UTC 25 June 2019
Temperature: 23.0°C (73°F)
Dewpoint: 20.0°C (68°F) [RH = 83%]
Pressure (altimeter): 29.82 inches Hg (1010.0 mb)
Winds: from the SSE (150 degrees) at 14 MPH (12 knots; 6.2 m/s)
Visibility: 6 or more miles (10+ km)
Ceiling: at least 12,000 feet AGL
Clouds: few clouds at 2000 feet AGL
scattered clouds at 20000 feet AGL
Weather: no significant weather observed at this time

METAR text: SEST 242300Z 16012KT 9999 FEW020 SCT200 24/20 Q1009 RMK A2981
Conditions at: SEST (SAN CRISTOBAL IS, EC) observed 2300 UTC 24 June 2019
Temperature: 24.0°C (75°F)
Dewpoint: 20.0°C (68°F) [RH = 78%]
Pressure (altimeter): 29.79 inches Hg (1009.0 mb)
Winds: from the SSE (160 degrees) at 14 MPH (12 knots; 6.2 m/s)
Visibility: 6 or more miles (10+ km)
Ceiling: at least 12,000 feet AGL
Clouds: few clouds at 2000 feet AGL
scattered clouds at 20000 feet AGL
Weather: no significant weather observed at this time

METAR text: SEST 242200Z 16013KT 9999 FEW020 SCT200 25/20 Q1009 RMK A2980
Conditions at: SEST (SAN CRISTOBAL IS, EC) observed 2200 UTC 24 June 2019
Temperature: 25.0°C (77°F)
Dewpoint: 20.0°C (68°F) [RH = 74%]
Pressure (altimeter): 29.79 inches Hg (1009.0 mb)
Winds: from the SSE (160 degrees) at 15 MPH (13 knots; 6.7 m/s)
Visibility: 6 or more miles (10+ km)
Ceiling: at least 12,000 feet AGL
Clouds: few clouds at 2000 feet AGL
scattered clouds at 20000 feet AGL
Weather: no significant weather observed at this time

METAR text: SEST 242100Z 16016KT 9999 FEW020 SCT200 26/20 Q109 RMK A2981
Conditions at: SEST (SAN CRISTOBAL IS, EC) observed 2100 UTC 24 June 2019
Temperature: 26.0°C (79°F)
Dewpoint: 20.0°C (68°F) [RH = 70%]
Pressure (altimeter): missing
Winds: from the SSE (160 degrees) at 18 MPH (16 knots; 8.2 m/s)
Visibility: 6 or more miles (10+ km)
Ceiling: at least 12,000 feet AGL
Clouds: few clouds at 2000 feet AGL
scattered clouds at 20000 feet AGL
Weather: no significant weather observed at this time

METAR text: SEST 242000Z 14012KT 9999 FEW020 SCT100 26/20 Q1010 RMK A2983
Conditions at: SEST (SAN CRISTOBAL IS, EC) observed 2000 UTC 24 June 2019
Temperature: 26.0°C (79°F)
Dewpoint: 20.0°C (68°F) [RH = 70%]
Pressure (altimeter): 29.82 inches Hg (1010.0 mb)
Winds: from the SE (140 degrees) at 14 MPH (12 knots; 6.2 m/s)
Visibility: 6 or more miles (10+ km)
Ceiling: at least 12,000 feet AGL
Clouds: few clouds at 2000 feet AGL
scattered clouds at 10000 feet AGL
Weather: no significant weather observed at this time

METAR text: SEST 241900Z 14013KT 9999 FEW020 SCT100 26/20 Q1011 RMK A2985
Conditions at: SEST (SAN CRISTOBAL IS, EC) observed 1900 UTC 24 June 2019
Temperature: 26.0°C (79°F)
Dewpoint: 20.0°C (68°F) [RH = 70%]
Pressure (altimeter): 29.85 inches Hg (1011.0 mb)
Winds: from the SE (140 degrees) at 15 MPH (13 knots; 6.7 m/s)
Visibility: 6 or more miles (10+ km)
Ceiling: at least 12,000 feet AGL
Clouds: few clouds at 2000 feet AGL
scattered clouds at 10000 feet AGL
Weather: no significant weather observed at this time

METAR text: SEST 241800Z 13010KT 9999 FEW016 BKN040 26/21 Q1012 RMK A2988
Conditions at: SEST (SAN CRISTOBAL IS, EC) observed 1800 UTC 24 June 2019
Temperature: 26.0°C (79°F)
Dewpoint: 21.0°C (70°F) [RH = 74%]
Pressure (altimeter): 29.88 inches Hg (1012.0 mb)
Winds: from the SE (130 degrees) at 12 MPH (10 knots; 5.1 m/s)
Visibility: 6 or more miles (10+ km)
Ceiling: 4000 feet AGL
Clouds: few clouds at 1600 feet AGL
broken clouds at 4000 feet AGL
Weather: no significant weather observed at this time

METAR text: SEST 241700Z 14008KT 9999 FEW013 BKN040 26/20 Q1012 RMK A2989
Conditions at: SEST (SAN CRISTOBAL IS, EC) observed 1700 UTC 24 June 2019
Temperature: 26.0°C (79°F)
Dewpoint: 20.0°C (68°F) [RH = 70%]
Pressure (altimeter): 29.88 inches Hg (1012.0 mb)
Winds: from the SE (140 degrees) at 9 MPH (8 knots; 4.1 m/s)
Visibility: 6 or more miles (10+ km)
Ceiling: 4000 feet AGL
Clouds: few clouds at 1300 feet AGL
broken clouds at 4000 feet AGL
Weather: no significant weather observed at this time